Time;durP1;ratioP1;P1;durP2;ratioP2;P2;SDS_P1;SDS_P2;PMS_P1;PMS_P2;Temp;Humidity;BMP_temperature;BMP_pressure;BME280_temperature;BME280_humidity;BME280_pressure;Samples;Min_cycle;Max_cycle;Signal;HPM_P1;HPM_P2
2022/12/04 00:00:54;;;;;;;;;;;;;;;7.33;nan;102406.56;5061171;28;20394;-37
2022/12/04 00:03:20;;;;;;;;;;;;;;;7.34;nan;102400.22;5057108;28;20318;-40
2022/12/04 00:05:45;;;;;;;;;;;;;;;7.33;nan;102394.03;5059722;28;19924;-39
2022/12/04 00:08:10;;;;;;;;;;;;;;;7.32;nan;102395.06;5066113;28;19916;-40
2022/12/04 00:10:40;;;;;;;;;;;;;;;7.33;nan;102394.03;5066168;28;19931;-40
2022/12/04 00:13:05;;;;;;;;;;;;;;;7.33;nan;102393.22;5067462;28;19920;-38
2022/12/04 00:15:31;;;;;;;;;;;;;;;7.34;nan;102395.69;5062365;28;20399;-39
2022/12/04 00:17:56;;;;;;;;;;;;;;;7.36;nan;102399.03;5066216;28;19928;-43
2022/12/04 00:20:22;;;;;;;;;;;;;;;7.31;nan;102393.41;5069873;28;19928;-39
2022/12/04 00:22:47;;;;;;;;;;;;;;;7.34;nan;102397.53;5063667;28;20436;-41
2022/12/04 00:25:12;;;;;;;;;;;;;;;7.36;nan;102393.69;5063390;28;20268;-39
2022/12/04 00:27:38;;;;;;;;;;;;;;;7.40;nan;102394.16;5065928;28;20307;-38
2022/12/04 00:30:03;;;;;;;;;;;;;;;7.41;nan;102385.97;5069496;28;20965;-41
2022/12/04 00:32:29;;;;;;;;;;;;;;;7.41;nan;102393.97;5051311;28;20399;-42
2022/12/04 00:34:54;;;;;;;;;;;;;;;7.44;nan;102384.75;5064606;28;19973;-40
2022/12/04 00:37:19;;;;;;;;;;;;;;;7.44;nan;102388.25;5062577;28;19961;-41
2022/12/04 00:39:45;;;;;;;;;;;;;;;7.40;nan;102384.31;5066818;28;19916;-40
2022/12/04 00:42:10;;;;;;;;;;;;;;;7.35;nan;102389.34;5069716;28;19921;-40
2022/12/04 00:44:35;;;;;;;;;;;;;;;7.33;nan;102391.38;5064881;28;19978;-38
2022/12/04 00:47:00;;;;;;;;;;;;;;;7.34;nan;102390.38;5061531;28;20295;-40
2022/12/04 00:49:26;;;;;;;;;;;;;;;7.34;nan;102400.22;5066624;28;19920;-37
2022/12/04 00:51:51;;;;;;;;;;;;;;;7.35;nan;102399.19;5062986;28;19989;-40
2022/12/04 00:54:16;;;;;;;;;;;;;;;7.35;nan;102402.69;5068978;28;19916;-40
2022/12/04 00:56:42;;;;;;;;;;;;;;;7.35;nan;102400.00;5065670;28;19916;-39
2022/12/04 00:59:09;;;;;;;;;;;;;;;7.37;nan;102384.69;5068573;28;19931;-40
2022/12/04 01:01:34;;;;;;;;;;;;;;;7.39;nan;102377.31;5061930;28;20145;-40
2022/12/04 01:03:59;;;;;;;;;;;;;;;7.42;nan;102379.59;5058924;28;19920;-42
2022/12/04 01:06:26;;;;;;;;;;;;;;;7.42;nan;102387.63;5061215;28;19920;-38
2022/12/04 01:08:52;;;;;;;;;;;;;;;7.43;nan;102381.25;5064765;28;20167;-40
2022/12/04 01:11:18;;;;;;;;;;;;;;;7.44;nan;102387.41;5068282;28;19920;-39
2022/12/04 01:13:43;;;;;;;;;;;;;;;7.41;nan;102375.28;5058942;28;19970;-42
2022/12/04 01:16:14;;;;;;;;;;;;;;;7.41;nan;102372.63;5063247;28;19924;-38
2022/12/04 01:18:40;;;;;;;;;;;;;;;7.44;nan;102374.09;5064271;28;19921;-40
2022/12/04 01:21:05;;;;;;;;;;;;;;;7.45;nan;102376.56;5062793;28;19926;-39
2022/12/04 01:23:30;;;;;;;;;;;;;;;7.41;nan;102377.97;5060346;28;19920;-38
2022/12/04 01:25:57;;;;;;;;;;;;;;;7.39;nan;102376.50;5061720;28;20446;-39
2022/12/04 01:28:23;;;;;;;;;;;;;;;7.33;nan;102380.72;5064094;28;19996;-39
2022/12/04 01:30:56;;;;;;;;;;;;;;;7.32;nan;102376.41;5066240;28;20408;-40
2022/12/04 01:33:21;;;;;;;;;;;;;;;7.32;nan;102370.25;5061048;28;20123;-41
2022/12/04 01:35:51;;;;;;;;;;;;;;;7.33;nan;102372.72;5060755;28;19924;-41
2022/12/04 01:38:16;;;;;;;;;;;;;;;7.34;nan;102370.88;5062529;28;19931;-38
2022/12/04 01:40:42;;;;;;;;;;;;;;;7.36;nan;102372.38;5064162;28;19920;-42
2022/12/04 01:43:11;;;;;;;;;;;;;;;7.36;nan;102371.50;5063246;28;19943;-40
2022/12/04 01:45:38;;;;;;;;;;;;;;;7.29;nan;102366.13;5061870;28;20199;-40
2022/12/04 01:48:17;;;;;;;;;;;;;;;7.32;nan;102379.06;5060658;28;21214;-40
2022/12/04 01:50:43;;;;;;;;;;;;;;;7.35;nan;102368.03;5064816;28;19916;-40
2022/12/04 01:53:09;;;;;;;;;;;;;;;7.33;nan;102370.06;5063162;28;20441;-40
2022/12/04 01:55:34;;;;;;;;;;;;;;;7.29;nan;102363.44;5064561;28;19921;-39
2022/12/04 01:58:01;;;;;;;;;;;;;;;7.31;nan;102358.75;5059973;28;19932;-42
2022/12/04 02:00:26;;;;;;;;;;;;;;;7.32;nan;102356.91;5061485;28;19923;-40
2022/12/04 02:02:51;;;;;;;;;;;;;;;7.34;nan;102358.38;5059609;28;19920;-38
2022/12/04 02:05:19;;;;;;;;;;;;;;;7.37;nan;102363.34;5060492;28;19922;-40
2022/12/04 02:07:46;;;;;;;;;;;;;;;7.38;nan;102367.66;5059123;28;19924;-43
2022/12/04 02:10:12;;;;;;;;;;;;;;;7.40;nan;102357.63;5063566;28;20383;-39
2022/12/04 02:12:44;;;;;;;;;;;;;;;7.45;nan;102360.56;5063086;28;19916;-40
2022/12/04 02:15:26;;;;;;;;;;;;;;;7.48;nan;102352.19;5063955;28;19924;-42
2022/12/04 02:18:10;;;;;;;;;;;;;;;7.47;nan;102347.88;5058262;28;20051;-41
2022/12/04 02:20:39;;;;;;;;;;;;;;;7.47;nan;102352.38;5057796;28;20010;-39
2022/12/04 02:23:17;;;;;;;;;;;;;;;7.49;nan;102345.00;5058662;28;19977;-40
2022/12/04 02:25:51;;;;;;;;;;;;;;;7.49;nan;102348.50;5058400;28;19924;-40
2022/12/04 02:28:35;;;;;;;;;;;;;;;7.51;nan;102348.31;5053557;28;19968;-40
2022/12/04 02:31:01;;;;;;;;;;;;;;;7.52;nan;102350.78;5056108;28;19927;-40
2022/12/04 02:33:35;;;;;;;;;;;;;;;7.55;nan;102350.44;5057210;28;19935;-39
2022/12/04 02:36:04;;;;;;;;;;;;;;;7.56;nan;102349.41;5055577;28;20393;-40
2022/12/04 02:38:37;;;;;;;;;;;;;;;7.57;nan;102353.72;5058820;28;19952;-39
2022/12/04 02:41:18;;;;;;;;;;;;;;;7.60;nan;102351.69;5060089;28;19917;-41
2022/12/04 02:43:56;;;;;;;;;;;;;;;7.61;nan;102346.16;5062397;28;20460;-42
2022/12/04 02:46:33;;;;;;;;;;;;;;;7.63;nan;102345.97;5062562;28;19967;-38
2022/12/04 02:49:01;;;;;;;;;;;;;;;7.62;nan;102336.31;5060004;28;19978;-41
2022/12/04 02:51:29;;;;;;;;;;;;;;;7.62;nan;102334.47;5059760;28;20312;-38
2022/12/04 02:54:02;;;;;;;;;;;;;;;7.65;nan;102339.44;5063457;28;19971;-38
2022/12/04 02:56:30;;;;;;;;;;;;;;;7.68;nan;102339.03;5065954;28;20497;-36
2022/12/04 02:58:57;;;;;;;;;;;;;;;7.72;nan;102339.50;5061841;28;19928;-41
2022/12/04 03:01:27;;;;;;;;;;;;;;;7.73;nan;102335.84;5059850;28;20021;-40
2022/12/04 03:03:58;;;;;;;;;;;;;;;7.74;nan;102337.47;5065927;28;19923;-38
2022/12/04 03:06:26;;;;;;;;;;;;;;;7.72;nan;102334.16;5065069;28;19943;-39
2022/12/04 03:08:58;;;;;;;;;;;;;;;7.71;nan;102335.16;5065752;28;19923;-40
2022/12/04 03:11:25;;;;;;;;;;;;;;;7.72;nan;102339.50;5061082;28;19956;-39
2022/12/04 03:13:54;;;;;;;;;;;;;;;7.72;nan;102339.50;5055787;28;19951;-40
2022/12/04 03:16:26;;;;;;;;;;;;;;;7.72;nan;102344.81;5062379;28;19955;-39
2022/12/04 03:18:57;;;;;;;;;;;;;;;7.73;nan;102347.34;5061485;28;19982;-38
2022/12/04 03:21:24;;;;;;;;;;;;;;;7.75;nan;102339.97;5065282;28;20264;-40
2022/12/04 03:23:53;;;;;;;;;;;;;;;7.75;nan;102339.13;5060187;28;19931;-39
2022/12/04 03:26:27;;;;;;;;;;;;;;;7.75;nan;102344.47;5065508;28;19916;-38
2022/12/04 03:28:55;;;;;;;;;;;;;;;7.75;nan;102349.81;5066580;28;20557;-39
2022/12/04 03:31:24;;;;;;;;;;;;;;;7.76;nan;102349.63;5066095;28;19963;-40
2022/12/04 03:33:52;;;;;;;;;;;;;;;7.77;nan;102337.09;5060357;28;19916;-40
2022/12/04 03:36:24;;;;;;;;;;;;;;;7.77;nan;102335.25;5061689;28;19916;-39
2022/12/04 03:39:08;;;;;;;;;;;;;;;7.78;nan;102338.75;5065499;28;19920;-40
2022/12/04 03:41:47;;;;;;;;;;;;;;;7.79;nan;102324.38;5065422;28;19924;-40
2022/12/04 03:44:39;;;;;;;;;;;;;;;7.80;nan;102326.03;5049990;28;19916;-41
2022/12/04 03:47:10;;;;;;;;;;;;;;;7.80;nan;102323.38;5051451;28;20399;-42
2022/12/04 03:49:36;;;;;;;;;;;;;;;7.82;nan;102324.00;5060240;28;19917;-40
2022/12/04 03:52:03;;;;;;;;;;;;;;;7.82;nan;102319.50;5062211;28;19916;-36
2022/12/04 03:54:47;;;;;;;;;;;;;;;7.83;nan;102312.31;5066973;28;20007;-39
2022/12/04 03:57:19;;;;;;;;;;;;;;;7.82;nan;102318.66;5060903;28;19960;-40
2022/12/04 03:59:48;;;;;;;;;;;;;;;7.82;nan;102310.66;5061059;28;19920;-42
2022/12/04 04:02:16;;;;;;;;;;;;;;;7.83;nan;102309.63;5066209;28;19923;-40
2022/12/04 04:04:42;;;;;;;;;;;;;;;7.83;nan;102310.47;5066495;28;20335;-39
2022/12/04 04:07:14;;;;;;;;;;;;;;;7.83;nan;102299.78;5065220;28;19999;-38
2022/12/04 04:09:41;;;;;;;;;;;;;;;7.84;nan;102297.94;5060941;28;19995;-40
2022/12/04 04:12:18;;;;;;;;;;;;;;;7.84;nan;102297.94;5068443;28;20023;-38
2022/12/04 04:25:59;;;;;;;;;;;;;;;7.77;nan;102299.75;5060272;28;19970;-38
2022/12/04 04:28:28;;;;;;;;;;;;;;;7.78;nan;102306.72;5065464;28;19916;-37
2022/12/04 04:30:58;;;;;;;;;;;;;;;7.78;nan;102306.72;5061631;28;20019;-38
2022/12/04 04:33:23;;;;;;;;;;;;;;;7.80;nan;102300.19;5065826;28;19967;-37
2022/12/04 04:35:56;;;;;;;;;;;;;;;7.81;nan;102304.50;5063423;28;19921;-38
2022/12/04 04:38:35;;;;;;;;;;;;;;;7.82;nan;102297.31;5058639;28;19990;-40
2022/12/04 04:41:03;;;;;;;;;;;;;;;7.77;nan;102299.75;5059182;28;19916;-36
2022/12/04 04:43:38;;;;;;;;;;;;;;;7.74;nan;102295.63;5041610;28;19923;-40
2022/12/04 04:46:04;;;;;;;;;;;;;;;7.76;nan;102298.09;5064447;28;20042;-40
2022/12/04 04:48:38;;;;;;;;;;;;;;;7.75;nan;102296.44;5062726;28;19955;-39
2022/12/04 04:51:04;;;;;;;;;;;;;;;7.72;nan;102297.66;5063316;28;21380;-37
2022/12/04 04:53:32;;;;;;;;;;;;;;;7.75;nan;102299.13;5065117;28;20466;-40
2022/12/04 04:55:58;;;;;;;;;;;;;;;7.78;nan;102301.41;5058797;28;19917;-37
2022/12/04 04:58:23;;;;;;;;;;;;;;;7.79;nan;102309.19;5066028;28;19940;-38
2022/12/04 05:00:54;;;;;;;;;;;;;;;7.77;nan;102307.75;5066872;28;19927;-39
2022/12/04 05:03:20;;;;;;;;;;;;;;;7.76;nan;102306.09;5067025;28;19924;-36
2022/12/04 05:05:45;;;;;;;;;;;;;;;7.76;nan;102311.44;5062942;28;19916;-39
2022/12/04 05:08:10;;;;;;;;;;;;;;;7.77;nan;102315.75;5062839;28;19917;-37
2022/12/04 05:10:36;;;;;;;;;;;;;;;7.78;nan;102312.88;5066862;28;19924;-36
2022/12/04 05:13:01;;;;;;;;;;;;;;;7.80;nan;102316.19;5063597;28;19916;-39
2022/12/04 05:15:26;;;;;;;;;;;;;;;7.84;nan;102309.44;5067688;28;19920;-37
2022/12/04 05:17:52;;;;;;;;;;;;;;;7.85;nan;102312.94;5066821;28;19924;-36
2022/12/04 05:20:17;;;;;;;;;;;;;;;7.87;nan;102305.56;5060551;28;20790;-36
2022/12/04 05:22:42;;;;;;;;;;;;;;;7.89;nan;102296.34;5061908;28;20355;-37
2022/12/04 05:25:09;;;;;;;;;;;;;;;7.89;nan;102303.53;5061804;28;19969;-40
2022/12/04 05:27:34;;;;;;;;;;;;;;;7.85;nan;102307.59;5065668;28;20371;-38
2022/12/04 05:30:00;;;;;;;;;;;;;;;7.87;nan;102300.22;5060185;28;19925;-40
2022/12/04 05:32:26;;;;;;;;;;;;;;;7.90;nan;102307.88;5066743;28;19951;-35
2022/12/04 05:34:53;;;;;;;;;;;;;;;7.89;nan;102304.34;5067127;28;19943;-39
2022/12/04 05:37:19;;;;;;;;;;;;;;;7.89;nan;102300.84;5066488;28;20063;-37
2022/12/04 05:39:44;;;;;;;;;;;;;;;7.88;nan;102302.69;5065697;28;19925;-40
2022/12/04 05:42:10;;;;;;;;;;;;;;;7.84;nan;102303.28;5061724;28;20442;-40
2022/12/04 05:44:35;;;;;;;;;;;;;;;7.83;nan;102294.47;5062850;28;19917;-39
2022/12/04 05:47:00;;;;;;;;;;;;;;;7.81;nan;102301.00;5065521;28;20476;-39
2022/12/04 05:49:29;;;;;;;;;;;;;;;7.83;nan;102304.31;5067193;28;20400;-36
2022/12/04 05:51:54;;;;;;;;;;;;;;;7.83;nan;102302.47;5063022;28;19916;-39
2022/12/04 05:54:20;;;;;;;;;;;;;;;7.85;nan;102299.59;5066027;28;20306;-38
2022/12/04 05:56:45;;;;;;;;;;;;;;;7.85;nan;102297.75;5064015;28;20245;-40
2022/12/04 05:59:11;;;;;;;;;;;;;;;7.87;nan;102294.88;5066545;28;19920;-37
2022/12/04 06:01:36;;;;;;;;;;;;;;;7.89;nan;102300.84;5063019;28;20019;-35
2022/12/04 06:04:01;;;;;;;;;;;;;;;7.91;nan;102300.69;5062416;28;20007;-37
2022/12/04 06:06:27;;;;;;;;;;;;;;;7.86;nan;102302.06;5065317;28;20411;-40
2022/12/04 06:08:54;;;;;;;;;;;;;;;7.87;nan;102301.06;5062937;28;19942;-38
2022/12/04 06:11:20;;;;;;;;;;;;;;;7.86;nan;102303.91;5066496;28;20060;-40
2022/12/04 06:13:46;;;;;;;;;;;;;;;7.88;nan;102301.88;5058931;28;21300;-40
2022/12/04 06:16:15;;;;;;;;;;;;;;;7.91;nan;102292.69;5061692;28;19916;-37
2022/12/04 06:18:41;;;;;;;;;;;;;;;7.94;nan;102295.78;5059962;28;19924;-39
2022/12/04 06:21:06;;;;;;;;;;;;;;;7.95;nan;102302.78;5060272;28;19953;-40
2022/12/04 06:23:32;;;;;;;;;;;;;;;7.95;nan;102297.44;5062731;28;20019;-37
2022/12/04 06:26:00;;;;;;;;;;;;;;;7.89;nan;102296.34;5059033;28;19927;-40
2022/12/04 06:28:26;;;;;;;;;;;;;;;7.88;nan;102284.03;5057373;28;19923;-39
2022/12/04 06:30:51;;;;;;;;;;;;;;;7.89;nan;102288.34;5057198;28;19916;-39
2022/12/04 06:33:16;;;;;;;;;;;;;;;7.92;nan;102289.81;5063876;28;19959;-40
2022/12/04 06:35:41;;;;;;;;;;;;;;;7.93;nan;102279.97;5062103;28;20015;-38
2022/12/04 06:38:07;;;;;;;;;;;;;;;7.92;nan;102281.81;5057936;28;19976;-40
2022/12/04 06:40:32;;;;;;;;;;;;;;;7.91;nan;102284.69;5057985;28;20381;-37
2022/12/04 06:42:57;;;;;;;;;;;;;;;7.88;nan;102283.19;5060506;28;20277;-37
2022/12/04 06:45:23;;;;;;;;;;;;;;;7.89;nan;102295.53;5061319;28;20739;-39
2022/12/04 06:47:48;;;;;;;;;;;;;;;7.86;nan;102291.41;5060407;28;20354;-40
2022/12/04 06:50:13;;;;;;;;;;;;;;;7.86;nan;102295.91;5063040;28;20392;-39
2022/12/04 06:52:39;;;;;;;;;;;;;;;7.90;nan;102289.19;5060974;28;19927;-39
2022/12/04 06:55:04;;;;;;;;;;;;;;;7.92;nan;102279.16;5058775;28;19990;-39
2022/12/04 06:57:29;;;;;;;;;;;;;;;7.92;nan;102276.47;5057900;28;19920;-37
2022/12/04 06:59:55;;;;;;;;;;;;;;;7.94;nan;102287.78;5060005;28;19963;-37
2022/12/04 07:02:20;;;;;;;;;;;;;;;7.93;nan;102283.47;5061593;28;19923;-39
2022/12/04 07:04:46;;;;;;;;;;;;;;;7.95;nan;102280.59;5061246;28;20128;-36
2022/12/04 07:07:11;;;;;;;;;;;;;;;7.93;nan;102286.13;5059503;28;19923;-39
2022/12/04 07:09:36;;;;;;;;;;;;;;;7.94;nan;102279.78;5061628;28;19925;-38
2022/12/04 07:12:02;;;;;;;;;;;;;;;7.95;nan;102280.59;5063991;28;19919;-36
2022/12/04 07:14:27;;;;;;;;;;;;;;;7.93;nan;102283.47;5059875;28;20384;-37
2022/12/04 07:16:52;;;;;;;;;;;;;;;7.90;nan;102289.19;5061380;28;19916;-36
2022/12/04 07:19:17;;;;;;;;;;;;;;;7.92;nan;102291.66;5058770;28;20376;-39
2022/12/04 07:21:43;;;;;;;;;;;;;;;7.92;nan;102287.16;5060761;28;20446;-37
2022/12/04 07:24:12;;;;;;;;;;;;;;;7.89;nan;102287.50;5059469;28;19917;-38
2022/12/04 07:26:37;;;;;;;;;;;;;;;7.92;nan;102289.00;5059203;28;19927;-36
2022/12/04 07:29:03;;;;;;;;;;;;;;;7.91;nan;102295.34;5056112;28;20332;-36
2022/12/04 07:31:28;;;;;;;;;;;;;;;7.94;nan;102298.47;5059413;28;20299;-39
2022/12/04 07:33:54;;;;;;;;;;;;;;;7.96;nan;102293.75;5061134;28;19959;-39
2022/12/04 07:36:20;;;;;;;;;;;;;;;8.01;nan;102299.31;5061322;28;19927;-40
2022/12/04 07:38:46;;;;;;;;;;;;;;;8.01;nan;102299.31;5054792;28;20065;-36
2022/12/04 07:41:12;;;;;;;;;;;;;;;8.01;nan;102299.31;5056943;28;19920;-39
2022/12/04 07:43:37;;;;;;;;;;;;;;;8.03;nan;102299.13;5059972;28;20446;-40
2022/12/04 07:46:07;;;;;;;;;;;;;;;8.03;nan;102294.63;5057788;28;19916;-37
2022/12/04 07:48:32;;;;;;;;;;;;;;;8.03;nan;102293.78;5059693;28;19916;-38
2022/12/04 07:51:02;;;;;;;;;;;;;;;8.05;nan;102297.91;5058117;28;20383;-36
2022/12/04 07:53:27;;;;;;;;;;;;;;;8.07;nan;102300.38;5062857;28;20011;-40
2022/12/04 07:55:53;;;;;;;;;;;;;;;8.08;nan;102308.22;5061932;28;20034;-37
2022/12/04 07:58:18;;;;;;;;;;;;;;;8.09;nan;102303.72;5062817;28;19924;-38
2022/12/04 08:00:43;;;;;;;;;;;;;;;8.07;nan;102295.06;5060450;28;19970;-36
2022/12/04 08:03:09;;;;;;;;;;;;;;;8.10;nan;102302.69;5054076;28;19921;-40
2022/12/04 08:05:34;;;;;;;;;;;;;;;8.11;nan;102299.00;5059762;28;19924;-39
2022/12/04 08:07:59;;;;;;;;;;;;;;;8.13;nan;102303.13;5054723;28;19920;-40
2022/12/04 08:10:24;;;;;;;;;;;;;;;8.16;nan;102316.09;5058875;28;19924;-39
2022/12/04 08:12:50;;;;;;;;;;;;;;;8.19;nan;102322.88;5054770;28;20159;-38
2022/12/04 08:15:15;;;;;;;;;;;;;;;8.21;nan;102318.16;5056348;28;19956;-39
2022/12/04 08:17:40;;;;;;;;;;;;;;;8.22;nan;102316.31;5060988;28;19920;-40
2022/12/04 08:20:06;;;;;;;;;;;;;;;8.18;nan;102316.72;5059032;28;19933;-39
2022/12/04 08:22:31;;;;;;;;;;;;;;;8.18;nan;102322.06;5060977;28;19920;-40
2022/12/04 08:24:57;;;;;;;;;;;;;;;8.20;nan;102316.50;5061842;28;19924;-37
2022/12/04 08:27:22;;;;;;;;;;;;;;;8.25;nan;102308.75;5060866;28;20233;-38
2022/12/04 08:29:47;;;;;;;;;;;;;;;8.30;nan;102310.84;5054613;28;20189;-38
2022/12/04 08:32:12;;;;;;;;;;;;;;;8.32;nan;102304.28;5060918;28;20346;-40
2022/12/04 08:34:38;;;;;;;;;;;;;;;8.33;nan;102305.13;5062338;28;20295;-39
2022/12/04 08:37:03;;;;;;;;;;;;;;;8.33;nan;102302.44;5063395;28;19970;-38
2022/12/04 08:39:29;;;;;;;;;;;;;;;8.33;nan;102305.13;5067088;28;19981;-40
2022/12/04 08:41:54;;;;;;;;;;;;;;;8.32;nan;102301.63;5065590;28;19916;-39
2022/12/04 08:44:20;;;;;;;;;;;;;;;8.32;nan;102303.47;5064084;28;20260;-39
2022/12/04 08:46:45;;;;;;;;;;;;;;;8.32;nan;102298.13;5060777;28;20312;-40
2022/12/04 08:49:10;;;;;;;;;;;;;;;8.36;nan;102305.56;5065028;28;19924;-39
2022/12/04 08:51:36;;;;;;;;;;;;;;;8.36;nan;102304.75;5064366;28;19925;-39
2022/12/04 08:54:06;;;;;;;;;;;;;;;8.34;nan;102304.94;5062249;28;19927;-37
2022/12/04 08:56:32;;;;;;;;;;;;;;;8.34;nan;102304.94;5066657;28;19916;-38
2022/12/04 08:58:58;;;;;;;;;;;;;;;8.37;nan;102309.06;5059559;28;20248;-39
2022/12/04 09:01:24;;;;;;;;;;;;;;;8.38;nan;102319.56;5069073;28;19916;-39
2022/12/04 09:03:50;;;;;;;;;;;;;;;8.37;nan;102322.44;5067204;28;19917;-39
2022/12/04 09:06:16;;;;;;;;;;;;;;;8.38;nan;102324.06;5068493;28;19917;-38
2022/12/04 09:08:42;;;;;;;;;;;;;;;8.39;nan;102315.03;5065048;28;20011;-39
2022/12/04 09:11:11;;;;;;;;;;;;;;;8.42;nan;102319.97;5067036;28;20011;-36
2022/12/04 09:13:37;;;;;;;;;;;;;;;8.43;nan;102322.47;5067555;28;20462;-40
2022/12/04 09:16:03;;;;;;;;;;;;;;;8.44;nan;102326.00;5066264;28;19960;-36
2022/12/04 09:18:29;;;;;;;;;;;;;;;8.44;nan;102317.97;5064254;28;19925;-39
2022/12/04 09:20:58;;;;;;;;;;;;;;;8.45;nan;102319.63;5068967;28;19920;-38
2022/12/04 09:23:24;;;;;;;;;;;;;;;8.45;nan;102315.09;5069064;28;19916;-37
2022/12/04 09:25:50;;;;;;;;;;;;;;;8.46;nan;102316.75;5068033;28;19924;-37
2022/12/04 09:28:15;;;;;;;;;;;;;;;8.49;nan;102312.84;5066269;28;20372;-38
2022/12/04 09:30:40;;;;;;;;;;;;;;;8.50;nan;102303.81;5066031;28;19920;-36
2022/12/04 09:33:06;;;;;;;;;;;;;;;8.53;nan;102300.75;5068183;28;19920;-36
2022/12/04 09:35:32;;;;;;;;;;;;;;;8.55;nan;102300.56;5060536;28;19925;-38
2022/12/04 09:37:58;;;;;;;;;;;;;;;8.55;nan;102297.88;5063616;28;20143;-37
2022/12/04 09:40:28;;;;;;;;;;;;;;;8.56;nan;102303.03;5065199;28;20002;-38
2022/12/04 09:42:56;;;;;;;;;;;;;;;8.57;nan;102298.50;5061899;28;19970;-37
2022/12/04 09:45:23;;;;;;;;;;;;;;;8.60;nan;102308.78;5056981;28;19931;-37
2022/12/04 09:47:53;;;;;;;;;;;;;;;8.63;nan;102300.41;5062195;28;20196;-39
2022/12/04 09:50:18;;;;;;;;;;;;;;;8.63;nan;102298.56;5061180;28;19954;-36
2022/12/04 09:52:55;;;;;;;;;;;;;;;8.65;nan;102299.19;5057524;28;20360;-37
2022/12/04 09:55:29;;;;;;;;;;;;;;;8.66;nan;102289.31;5057820;28;19963;-40
2022/12/04 09:57:55;;;;;;;;;;;;;;;8.64;nan;102288.69;5061883;28;19964;-38
2022/12/04 10:00:21;;;;;;;;;;;;;;;8.64;nan;102292.19;5060981;28;20477;-40
2022/12/04 10:03:15;;;;;;;;;;;;;;;8.66;nan;102283.97;5063395;28;20224;-39
2022/12/04 10:05:45;;;;;;;;;;;;;;;8.66;nan;102286.66;5051821;28;19924;-38
2022/12/04 10:08:17;;;;;;;;;;;;;;;8.68;nan;102289.94;5062749;28;19929;-37
2022/12/04 10:10:49;;;;;;;;;;;;;;;8.69;nan;102283.56;5061550;28;19921;-40
2022/12/04 10:13:14;;;;;;;;;;;;;;;8.71;nan;102287.69;5063933;28;19917;-37
2022/12/04 10:15:57;;;;;;;;;;;;;;;8.72;nan;102284.00;5060855;28;19943;-36
2022/12/04 10:18:22;;;;;;;;;;;;;;;8.73;nan;102269.63;5058774;28;19924;-39
2022/12/04 10:21:00;;;;;;;;;;;;;;;8.75;nan;102270.25;5060830;28;20387;-38
2022/12/04 10:23:25;;;;;;;;;;;;;;;8.76;nan;102258.53;5058897;28;19924;-40
2022/12/04 10:25:52;;;;;;;;;;;;;;;8.77;nan;102265.53;5063322;28;20392;-37
2022/12/04 10:28:23;;;;;;;;;;;;;;;8.77;nan;102273.53;5057839;28;19916;-37
2022/12/04 10:30:51;;;;;;;;;;;;;;;8.76;nan;102263.88;5045017;28;19920;-42
2022/12/04 10:33:19;;;;;;;;;;;;;;;8.75;nan;102262.22;5054742;28;20515;-38
2022/12/04 10:35:46;;;;;;;;;;;;;;;8.76;nan;102252.34;5060137;28;19925;-42
2022/12/04 10:38:27;;;;;;;;;;;;;;;8.77;nan;102251.34;5062423;28;20459;-40
2022/12/04 10:40:56;;;;;;;;;;;;;;;8.76;nan;102247.84;5060611;28;19920;-39
2022/12/04 10:43:24;;;;;;;;;;;;;;;8.77;nan;102249.47;5062088;28;20106;-41
2022/12/04 10:45:50;;;;;;;;;;;;;;;8.80;nan;102242.94;5060670;28;19923;-40
2022/12/04 10:48:30;;;;;;;;;;;;;;;8.81;nan;102236.56;5062729;28;19931;-39
2022/12/04 10:50:55;;;;;;;;;;;;;;;8.78;nan;102244.97;5055893;28;19921;-41
2022/12/04 10:53:23;;;;;;;;;;;;;;;8.79;nan;102246.59;5058848;28;19921;-41
2022/12/04 10:55:48;;;;;;;;;;;;;;;8.76;nan;102241.66;5058851;28;20391;-41
2022/12/04 10:58:18;;;;;;;;;;;;;;;8.75;nan;102246.19;5059783;28;19975;-40
2022/12/04 11:00:45;;;;;;;;;;;;;;;8.77;nan;102241.47;5062062;28;20007;-39
2022/12/04 11:03:24;;;;;;;;;;;;;;;8.83;nan;102241.72;5060020;28;20569;-40
2022/12/04 11:05:54;;;;;;;;;;;;;;;8.82;nan;102240.06;5061037;28;20015;-42
2022/12/04 11:08:24;;;;;;;;;;;;;;;8.83;nan;102247.88;5063287;28;20039;-39
2022/12/04 11:10:58;;;;;;;;;;;;;;;8.84;nan;102238.00;5059380;28;19917;-42
2022/12/04 11:13:23;;;;;;;;;;;;;;;8.88;nan;102242.75;5065674;28;19969;-40
2022/12/04 11:15:49;;;;;;;;;;;;;;;8.90;nan;102239.88;5062906;28;19920;-41
2022/12/04 11:18:19;;;;;;;;;;;;;;;8.86;nan;102236.78;5061683;28;20671;-39
2022/12/04 11:20:59;;;;;;;;;;;;;;;8.87;nan;102240.28;5061614;28;20618;-41
2022/12/04 11:23:25;;;;;;;;;;;;;;;8.89;nan;102235.56;5065796;28;19932;-41
2022/12/04 11:25:55;;;;;;;;;;;;;;;8.94;nan;102233.09;5058731;28;19927;-42
2022/12/04 11:28:22;;;;;;;;;;;;;;;8.98;nan;102229.03;5060915;28;20306;-40
2022/12/04 11:30:50;;;;;;;;;;;;;;;9.01;nan;102231.28;5057819;28;19928;-40
2022/12/04 11:33:22;;;;;;;;;;;;;;;9.02;nan;102225.72;5059457;28;19920;-42
2022/12/04 11:35:55;;;;;;;;;;;;;;;9.02;nan;102222.25;5057034;28;19927;-38
2022/12/04 11:38:24;;;;;;;;;;;;;;;9.02;nan;102224.91;5064664;28;19928;-39
2022/12/04 11:40:51;;;;;;;;;;;;;;;9.02;nan;102219.56;5056750;28;20352;-42
2022/12/04 11:43:17;;;;;;;;;;;;;;;9.02;nan;102215.03;5063616;28;19920;-41
2022/12/04 11:45:59;;;;;;;;;;;;;;;9.04;nan;102207.63;5057246;28;19924;-39
2022/12/04 11:48:25;;;;;;;;;;;;;;;9.06;nan;102220.81;5060142;28;19952;-41
2022/12/04 11:51:05;;;;;;;;;;;;;;;9.06;nan;102216.28;5057674;28;19992;-39
2022/12/04 11:53:47;;;;;;;;;;;;;;;9.07;nan;102214.44;5059774;28;19927;-42
2022/12/04 11:56:18;;;;;;;;;;;;;;;9.07;nan;102214.44;5056317;28;19927;-41
2022/12/04 11:58:59;;;;;;;;;;;;;;;9.06;nan;102216.28;5062000;28;19921;-40
2022/12/04 12:01:47;;;;;;;;;;;;;;;9.07;nan;102214.44;5059396;28;20048;-42
2022/12/04 12:04:25;;;;;;;;;;;;;;;9.09;nan;102221.22;5037259;28;19921;-40
2022/12/04 12:07:13;;;;;;;;;;;;;;;9.12;nan;102219.16;5059459;28;20016;-42
2022/12/04 12:10:02;;;;;;;;;;;;;;;9.13;nan;102212.78;5020420;28;19925;-44
2022/12/04 12:12:35;;;;;;;;;;;;;;;9.13;nan;102212.78;5026444;28;20379;-42
2022/12/04 12:15:01;;;;;;;;;;;;;;;9.13;nan;102220.81;5061738;28;20012;-38
2022/12/04 12:17:41;;;;;;;;;;;;;;;9.14;nan;102211.75;5060058;28;19924;-41
2022/12/04 12:20:16;;;;;;;;;;;;;;;9.16;nan;102217.75;5058736;28;20658;-40
2022/12/04 12:22:52;;;;;;;;;;;;;;;9.17;nan;102216.72;5067404;28;19931;-41
2022/12/04 12:25:29;;;;;;;;;;;;;;;9.16;nan;102210.56;5062736;28;19927;-40
2022/12/04 12:28:24;;;;;;;;;;;;;;;9.16;nan;102209.72;5064230;28;20001;-38
2022/12/04 12:31:01;;;;;;;;;;;;;;;9.17;nan;102204.19;5045928;28;19920;-37
2022/12/04 12:33:33;;;;;;;;;;;;;;;9.18;nan;102215.69;5068005;28;19920;-37
2022/12/04 12:36:11;;;;;;;;;;;;;;;9.20;nan;102222.50;5063943;28;19920;-40
2022/12/04 12:38:48;;;;;;;;;;;;;;;9.20;nan;102211.78;5063161;28;20399;-39
2022/12/04 12:41:19;;;;;;;;;;;;;;;9.21;nan;102225.97;5059386;28;19928;-41
2022/12/04 12:43:49;;;;;;;;;;;;;;;9.20;nan;102211.78;5060670;28;19931;-42
2022/12/04 12:46:17;;;;;;;;;;;;;;;9.20;nan;102205.63;5060510;28;20039;-40
2022/12/04 12:48:51;;;;;;;;;;;;;;;9.19;nan;102203.97;5055434;28;19996;-38
2022/12/04 12:51:16;;;;;;;;;;;;;;;9.17;nan;102198.00;5060241;28;20332;-40
2022/12/04 12:53:44;;;;;;;;;;;;;;;9.17;nan;102198.81;5059554;28;20051;-41
2022/12/04 12:56:10;;;;;;;;;;;;;;;9.17;nan;102192.66;5061933;28;19963;-42
2022/12/04 12:58:42;;;;;;;;;;;;;;;9.18;nan;102187.09;5057150;28;19991;-41
2022/12/04 13:01:10;;;;;;;;;;;;;;;9.17;nan;102189.97;5058949;28;19924;-41
2022/12/04 13:03:39;;;;;;;;;;;;;;;9.05;nan;102192.41;5059481;28;20451;-41
2022/12/04 13:06:08;;;;;;;;;;;;;;;9.03;nan;102189.94;5054417;28;20213;-41
2022/12/04 13:08:38;;;;;;;;;;;;;;;9.03;nan;102191.81;5064133;28;19916;-39
2022/12/04 13:11:12;;;;;;;;;;;;;;;9.06;nan;102183.38;5054918;28;19917;-41
2022/12/04 13:13:41;;;;;;;;;;;;;;;9.07;nan;102168.97;5061734;28;19924;-37
2022/12/04 13:16:17;;;;;;;;;;;;;;;9.07;nan;102168.97;5055507;28;19931;-40
2022/12/04 13:18:55;;;;;;;;;;;;;;;9.08;nan;102166.09;5058433;28;20212;-38
2022/12/04 13:21:41;;;;;;;;;;;;;;;9.08;nan;102165.28;5056741;28;19967;-40
2022/12/04 13:24:32;;;;;;;;;;;;;;;9.10;nan;102168.56;5058898;28;19924;-40
2022/12/04 13:27:04;;;;;;;;;;;;;;;9.13;nan;102165.47;5026760;28;19939;-42